createdAt,value
2023-06-27T00:00:46.661Z,79.4
2023-06-27T00:10:46.641Z,79.6
2023-06-27T00:20:46.589Z,79.6
2023-06-27T00:30:46.568Z,79.2
2023-06-27T00:40:46.539Z,78.6
2023-06-27T00:50:46.491Z,78
2023-06-27T01:00:46.462Z,77.8
2023-06-27T01:10:46.419Z,78.4
2023-06-27T01:20:46.458Z,77.8
2023-06-27T01:30:46.377Z,78
2023-06-27T01:40:46.336Z,78.2
2023-06-27T01:50:46.470Z,79
2023-06-27T02:00:46.284Z,80.6
2023-06-27T02:10:46.243Z,81.2
2023-06-27T02:20:46.216Z,81.2
2023-06-27T02:30:46.181Z,81
2023-06-27T02:40:46.144Z,81.8
2023-06-27T02:50:46.101Z,82.4
2023-06-27T03:00:46.062Z,82.8
2023-06-27T03:10:46.055Z,83.4
2023-06-27T03:20:46.016Z,83
2023-06-27T03:30:46.065Z,82.2
2023-06-27T03:40:45.954Z,82.6
2023-06-27T03:50:45.927Z,82.6
2023-06-27T04:00:45.892Z,82.2
2023-06-27T04:10:45.854Z,81
2023-06-27T04:20:45.809Z,81.2
2023-06-27T04:30:45.779Z,80.6
2023-06-27T04:40:45.745Z,79.8
2023-06-27T04:50:45.719Z,79.6
2023-06-27T05:00:45.702Z,78.2
2023-06-27T05:10:45.679Z,77.4
2023-06-27T05:20:45.650Z,77.2
2023-06-27T05:30:45.577Z,76.8
2023-06-27T05:40:45.529Z,76
2023-06-27T05:50:45.529Z,75
2023-06-27T06:00:45.547Z,74.2
2023-06-27T06:10:45.461Z,73
2023-06-27T06:20:45.484Z,71.6
2023-06-27T06:30:45.395Z,69.4
2023-06-27T06:40:45.338Z,68.4
2023-06-27T06:50:45.311Z,68
2023-06-27T07:00:45.410Z,67.6
2023-06-27T07:10:45.253Z,67.4
2023-06-27T07:20:45.412Z,67.2
2023-06-27T07:30:45.335Z,66.8
2023-06-27T07:40:45.314Z,66.6
2023-06-27T07:50:45.270Z,66.4
2023-06-27T08:00:45.251Z,64.6
2023-06-27T08:10:45.152Z,64.2
2023-06-27T08:20:44.995Z,62.8
2023-06-27T08:30:44.970Z,60.6
2023-06-27T08:40:44.930Z,59.2
2023-06-27T08:50:44.893Z,60.6
2023-06-27T09:00:44.864Z,60.4
2023-06-27T09:10:44.831Z,59
2023-06-27T09:20:44.789Z,60.2
2023-06-27T09:30:44.774Z,59
2023-06-27T09:40:44.728Z,61
2023-06-27T09:50:44.690Z,59.2
2023-06-27T10:00:44.871Z,55.2
2023-06-27T10:10:44.834Z,55.4
2023-06-27T10:20:44.762Z,55.4
2023-06-27T10:30:44.790Z,54.4
2023-06-27T10:40:44.510Z,53
2023-06-27T10:50:44.685Z,51
2023-06-27T11:00:44.651Z,47.8
2023-06-27T11:10:44.603Z,48.4
2023-06-27T11:20:44.580Z,48.8
2023-06-27T11:30:44.375Z,45.8
2023-06-27T11:40:44.319Z,48.2
2023-06-27T11:50:44.398Z,47.8
2023-06-27T12:00:44.253Z,45
2023-06-27T12:10:44.201Z,46.8
2023-06-27T12:20:44.159Z,46.8
2023-06-27T12:30:44.150Z,46.4
2023-06-27T12:40:44.099Z,46
2023-06-27T12:50:44.047Z,47.4
2023-06-27T13:00:44.018Z,47.8
2023-06-27T13:10:43.997Z,48.2
2023-06-27T13:20:43.947Z,48.4
2023-06-27T13:30:43.916Z,50.6
2023-06-27T13:40:43.917Z,50.6
2023-06-27T13:50:43.933Z,51.4
2023-06-27T14:00:43.816Z,52.2
2023-06-27T14:10:43.789Z,51
2023-06-27T14:20:43.772Z,47.8
2023-06-27T14:30:43.717Z,46.8
2023-06-27T14:40:43.685Z,47.8
2023-06-27T14:50:43.670Z,49.4
2023-06-27T15:00:43.675Z,48
2023-06-27T15:10:43.568Z,48.4
2023-06-27T15:20:43.538Z,48
2023-06-27T15:30:43.499Z,49.2
2023-06-27T15:40:43.455Z,49.4
2023-06-27T15:50:43.423Z,49.4
2023-06-27T16:00:43.402Z,48.6
2023-06-27T16:10:43.361Z,47
2023-06-27T16:20:43.330Z,45.8
2023-06-27T16:30:43.303Z,45.6
2023-06-27T16:40:43.256Z,46.2
2023-06-27T16:50:43.249Z,46
2023-06-27T17:00:43.224Z,46
2023-06-27T17:10:43.145Z,47
2023-06-27T17:20:43.126Z,47.6
2023-06-27T17:30:43.083Z,48.4
2023-06-27T17:40:43.043Z,49.2
2023-06-27T17:50:43.019Z,49.8
2023-06-27T18:00:42.969Z,50.2
2023-06-27T18:10:42.955Z,51
2023-06-27T18:20:42.894Z,51.4
2023-06-27T18:30:42.861Z,52.2
2023-06-27T18:40:42.846Z,52.8
2023-06-27T18:50:42.806Z,53.2
2023-06-27T19:00:42.759Z,56
2023-06-27T19:10:42.738Z,66.6
2023-06-27T19:20:42.692Z,70.6
2023-06-27T19:30:42.661Z,75.2
2023-06-27T19:40:42.619Z,79.6
2023-06-27T19:50:42.615Z,86.8
2023-06-27T20:00:42.552Z,88.2
2023-06-27T20:10:42.531Z,90.8
2023-06-27T20:20:42.493Z,91.6
2023-06-27T20:30:42.459Z,92.4
2023-06-27T20:40:42.425Z,92.6
2023-06-27T20:50:42.382Z,92.4
2023-06-27T21:00:42.406Z,92.4
2023-06-27T21:10:42.351Z,92.6
2023-06-27T21:20:42.300Z,92.6
2023-06-27T21:30:42.256Z,92.4
2023-06-27T21:40:42.219Z,92.4
2023-06-27T21:50:42.190Z,92.8
2023-06-27T22:00:42.154Z,92.6
2023-06-27T22:10:42.145Z,92.8
2023-06-27T22:20:42.094Z,93.2
2023-06-27T22:30:42.061Z,94
2023-06-27T22:40:42.037Z,92.8
2023-06-27T22:50:41.983Z,92.4
2023-06-27T23:00:41.956Z,93.4
2023-06-27T23:10:41.914Z,94.2
2023-06-27T23:20:41.896Z,94
2023-06-27T23:30:41.846Z,94
2023-06-27T23:40:41.817Z,94.4
2023-06-27T23:50:41.780Z,94.4
